Delta Pioneer — SYIO — position and weather

sailwx.info

Track history (hours):
 
Tides and Currents Weather Stations Pressure Air Temp Water Temp Dewpoint Dewpoint Depression Visibility Wind Speed Wind Dir Waves Ship Positions

Delta Pioneer

Last reported at 2016-May-25 12:28 UTC. Time now 2016-May-28 22:07 UTC.
Position N 49°43' W 003°39'.

Length 249 m; draft 14.2 m.

Type: Ship (hazmat cat C). MMSI: 240244000.

Date/timePositionNaut miles runAvg speedWind from/ knotsBaromVisibWave heightAir tempDewpointWater temp
2016-May-25 12:28N 49°43' W 003°39'1212.8
2016-May-25 11:33N 49°49' W 003°24'1211.9
2016-May-25 10:33N 49°55' W 003°08'1110.9
2016-May-25 09:33N 49°60' W 002°53'1110.6
2016-May-25 08:31N 50°03' W 002°36'8413.7
2016-May-25 02:21N 50°25' W 000°29'1113.6
2016-May-25 01:33N 50°28' W 000°13'1312.5
2016-May-25 00:33N 50°31' E 000°06'1111.5
2016-May-24 23:33N 50°34' E 000°24'1110.8
2016-May-24 22:33N 50°38' E 000°39'2612.6
2016-May-24 20:32N 50°54' E 001°11'1414.8
2016-May-24 19:33N 51°04' E 001°27'1414.2
2016-May-24 18:33N 51°13' E 001°45'1212.3
2016-May-24 17:33N 51°24' E 001°54'1111.2
2016-May-24 16:33N 51°33' E 002°05'1210.7
2016-May-24 15:28N 51°42' E 002°17'1510.8
2016-May-24 14:04N 51°53' E 002°32'611.0
2016-May-24 13:33N 51°58' E 002°36'35412.5
2016-May-23 09:15N 57°09' E 007°29'912.1
2016-May-23 08:28N 57°16' E 007°39'9311.6
2016-May-23 00:29N 57°51' E 010°19'1112.0
2016-May-22 23:33N 57°50' E 010°40'1212.3
2016-May-22 22:33N 57°42' E 010°57'1212.3
2016-May-22 21:34N 57°34' E 011°14'1111.3
2016-May-22 20:33N 57°25' E 011°28'1211.9
2016-May-22 19:33N 57°14' E 011°35'1211.9
2016-May-22 18:33N 57°03' E 011°42'1211.6
2016-May-22 17:33N 56°52' E 011°50'1010.5
2016-May-22 16:33N 56°41' E 011°50'1212.1
2016-May-22 15:33N 56°31' E 011°39'21 9.4
2016-May-22 13:16N 56°20' E 011°06'1012.1
2016-May-22 12:25N 56°09' E 011°06'5310.7
2016-May-22 07:29N 55°17' E 011°04'9 9.4
2016-May-22 06:33N 55°08' E 010°59'1111.5
2016-May-22 05:33N 54°57' E 010°55'1211.8
2016-May-22 04:33N 54°46' E 010°49'1010.0
2016-May-22 03:33N 54°37' E 010°57'1212.2
2016-May-22 02:33N 54°34' E 011°17'1312.6
2016-May-22 01:33N 54°29' E 011°37'1212.5
2016-May-22 00:33N 54°27' E 011°58'10 9.9
2016-May-21 23:33N 54°31' E 012°13'10 9.3
2016-May-21 22:31N 54°39' E 012°23'8 8.5
2016-May-21 21:33N 54°43' E 012°35'7 7.3
2016-May-21 20:33N 54°47' E 012°46'1010.5
2016-May-21 19:33N 54°51' E 013°02'1312.6
2016-May-21 18:33N 54°56' E 013°23'1312.6
2016-May-21 17:33N 54°60' E 013°44'1212.3
2016-May-21 16:33N 55°05' E 014°03'1212.1
2016-May-21 15:33N 55°14' E 014°17'1212.4
2016-May-21 14:33N 55°23' E 014°31'1212.2
2016-May-21 13:34N 55°30' E 014°48'1312.5
2016-May-21 12:33N 55°36' E 015°08'1412.3
2016-May-21 11:22N 55°41' E 015°32'30211.5
2016-May-20 09:15N 59°19' E 021°60'912.5
2016-May-20 08:33N 59°24' E 022°14'1312.5
2016-May-20 07:33N 59°31' E 022°34'1312.3
2016-May-20 06:29N 59°34' E 022°59'1212.5
2016-May-20 05:33N 59°38' E 023°21'1212.5
2016-May-20 04:33N 59°41' E 023°45'1312.7
2016-May-20 03:33N 59°45' E 024°09'1412.5
2016-May-20 02:25N 59°48' E 024°36'3612.3
2016-May-19 23:28N 59°55' E 025°48'1512.1
2016-May-19 22:16N 59°59' E 026°16'812.1
2016-May-19 21:33N 60°01' E 026°32'1312.1
2016-May-19 20:30N 59°60' E 026°58'1111.4
2016-May-19 19:33N 60°04' E 027°18'1212.2
2016-May-19 18:33N 60°10' E 027°39'1111.4
2016-May-19 17:33N 60°10' E 028°02'1212.0
2016-May-19 16:33N 60°05' E 028°24'9 9.4
2016-May-19 15:33N 59°58' E 028°35'1010.1
2016-May-19 14:33N 59°49' E 028°26'7 6.4
2016-May-19 13:32N 59°43' E 028°26'0 0.0
2016-May-19 12:24N 59°43' E 028°26'0 0.0
2016-May-19 11:23N 59°43' E 028°26'0 0.0
2016-May-19 10:26N 59°43' E 028°26'0 0.0
2016-May-19 09:27N 59°43' E 028°26'0 0.0
2016-May-19 08:30N 59°43' E 028°26'0 0.0
2016-May-19 07:29N 59°43' E 028°26'0 0.0
2016-May-19 06:30N 59°43' E 028°26'0 0.0
2016-May-19 05:32N 59°43' E 028°26'0 0.0
2016-May-19 04:33N 59°43' E 028°26'0 0.0
2016-May-19 03:32N 59°43' E 028°26'0 0.0
2016-May-19 02:32N 59°43' E 028°26'0 0.0
2016-May-19 01:32N 59°43' E 028°26'0 0.0
2016-May-19 00:32N 59°43' E 028°26'0 0.0
2016-May-18 23:32N 59°43' E 028°26'0 0.0
2016-May-18 22:24N 59°43' E 028°26'0 0.0
2016-May-18 21:24N 59°43' E 028°26'0 0.0
2016-May-18 20:27N 59°43' E 028°26'0 0.0
2016-May-18 19:23N 59°43' E 028°26'0 0.0
2016-May-18 18:29N 59°43' E 028°26'0 0.0
2016-May-18 17:29N 59°43' E 028°26'0 0.0
2016-May-18 16:30N 59°43' E 028°26'0 0.0
2016-May-18 15:32N 59°43' E 028°26'0 0.0
2016-May-18 14:32N 59°43' E 028°26'0 0.0
2016-May-18 13:32N 59°43' E 028°26'0 0.0
2016-May-18 12:32N 59°43' E 028°26'0 0.0
2016-May-18 11:32N 59°43' E 028°26'0 0.0
2016-May-18 10:32N 59°43' E 028°26'0 0.0
2016-May-18 09:32N 59°43' E 028°26'0 0.0
2016-May-18 08:32N 59°43' E 028°26'0 0.0
2016-May-18 07:33N 59°43' E 028°26'1 1.2
2016-May-18 06:33N 59°41' E 028°24'5 4.8
2016-May-18 05:33N 59°46' E 028°24'0 0.0
2016-May-18 04:21N 59°46' E 028°24'0 0.1
2016-May-18 03:33N 59°46' E 028°24'0 0.0
2016-May-18 02:24N 59°46' E 028°24'0 0.0
2016-May-18 01:27N 59°46' E 028°24'0 0.1
2016-May-18 00:27N 59°46' E 028°25'0 0.0
2016-May-17 23:27N 59°46' E 028°25'0 0.1
2016-May-17 22:30N 59°46' E 028°25'0 0.0
2016-May-17 21:30N 59°46' E 028°25'0 0.2
2016-May-17 20:30N 59°46' E 028°25'0 0.1
2016-May-17 19:33N 59°46' E 028°25'0 0.0
2016-May-17 18:33N 59°46' E 028°25'0 0.0
2016-May-17 17:33N 59°46' E 028°25'0 0.0
2016-May-17 16:33N 59°46' E 028°25'0 0.0
2016-May-17 15:33N 59°46' E 028°25'0 0.0
2016-May-17 14:33N 59°46' E 028°25'0 0.0
2016-May-17 13:33N 59°46' E 028°25'0 0.0
2016-May-17 12:24N 59°46' E 028°25'0 0.0
2016-May-17 11:27N 59°46' E 028°25'0 0.0
2016-May-17 10:27N 59°46' E 028°25'0 0.0
2016-May-17 09:27N 59°46' E 028°25'0 0.0
2016-May-17 08:30N 59°46' E 028°25'0 0.1
2016-May-17 07:30N 59°46' E 028°24'0 0.0
2016-May-17 06:30N 59°46' E 028°24'0 0.0
2016-May-17 05:27N 59°46' E 028°25'0 0.2
2016-May-17 04:34N 59°46' E 028°25'8 8.4
2016-May-17 03:34N 59°54' E 028°31'3 2.9
2016-May-17 02:30N 59°56' E 028°36'0 0.0
2016-May-17 01:30N 59°56' E 028°36'0 0.0
2016-May-17 00:30N 59°56' E 028°36'0 0.0
2016-May-16 23:33N 59°56' E 028°36'0 0.0
2016-May-16 22:33N 59°56' E 028°36'0 0.0
2016-May-16 21:33N 59°56' E 028°36'0 0.0
2016-May-16 20:33N 59°56' E 028°36'0 0.1
2016-May-16 19:21N 59°56' E 028°36'0 0.0
2016-May-16 18:33N 59°56' E 028°36'0 0.1
2016-May-16 17:33N 59°56' E 028°36'0 0.1
2016-May-16 16:24N 59°56' E 028°36'0 0.0
2016-May-16 15:27N 59°56' E 028°36'0 0.0
2016-May-16 14:24N 59°56' E 028°36'0 0.1
2016-May-16 13:30N 59°56' E 028°36'0 0.1
2016-May-16 12:30N 59°56' E 028°36'0 0.1
2016-May-16 11:30N 59°56' E 028°36'0 0.1
2016-May-16 10:33N 59°56' E 028°36'0 0.0
2016-May-16 09:30N 59°56' E 028°36'0 0.0
2016-May-16 08:33N 59°56' E 028°36'0 0.0
2016-May-16 07:33N 59°56' E 028°36'0 0.1
2016-May-16 06:33N 59°56' E 028°36'0 0.1
2016-May-16 05:33N 59°56' E 028°36'0 0.2
2016-May-16 04:30N 59°56' E 028°36'3 3.2
2016-May-16 03:33N 59°59' E 028°35'6 6.2
2016-May-16 02:33N 60°03' E 028°26'7 6.7
2016-May-16 01:33N 60°07' E 028°15'7 7.3
2016-May-16 00:33N 60°09' E 028°01'7 7.1
2016-May-15 23:33N 60°11' E 027°47'8 7.6
2016-May-15 22:33N 60°07' E 027°34'8 7.8
2016-May-15 21:33N 60°03' E 027°21'7 7.1
2016-May-15 20:33N 59°59' E 027°08'5 4.6
2016-May-15 19:33N 59°58' E 026°60'5 4.9
2016-May-15 18:33N 59°59' E 026°50'6 6.4
2016-May-15 17:33N 59°59' E 026°37'7 7.3
2016-May-15 16:33N 59°57' E 026°23'7 7.2
2016-May-15 15:33N 59°55' E 026°09'  
Track history (hours):
 
Tides and Currents Weather Stations Pressure Air Temp Water Temp Dewpoint Dewpoint Depression Visibility Wind Speed Wind Dir Waves Ship Positions

Delta Pioneer

Last reported at 2016-May-25 12:28 UTC. Time now 2016-May-28 22:07 UTC.
Position N 49°43' W 003°39'.

Length 249 m; draft 14.2 m.

Type: Ship (hazmat cat C). MMSI: 240244000.

Date/timePositionNaut miles runAvg speedWind from/ knotsBaromVisibWave heightAir tempDewpointWater temp
2016-May-25 12:28N 49°43' W 003°39'1212.8
2016-May-25 11:33N 49°49' W 003°24'1211.9
2016-May-25 10:33N 49°55' W 003°08'1110.9
2016-May-25 09:33N 49°60' W 002°53'1110.6
2016-May-25 08:31N 50°03' W 002°36'8413.7
2016-May-25 02:21N 50°25' W 000°29'1113.6
2016-May-25 01:33N 50°28' W 000°13'1312.5
2016-May-25 00:33N 50°31' E 000°06'1111.5
2016-May-24 23:33N 50°34' E 000°24'1110.8
2016-May-24 22:33N 50°38' E 000°39'2612.6
2016-May-24 20:32N 50°54' E 001°11'1414.8
2016-May-24 19:33N 51°04' E 001°27'1414.2
2016-May-24 18:33N 51°13' E 001°45'1212.3
2016-May-24 17:33N 51°24' E 001°54'1111.2
2016-May-24 16:33N 51°33' E 002°05'1210.7
2016-May-24 15:28N 51°42' E 002°17'1510.8
2016-May-24 14:04N 51°53' E 002°32'611.0
2016-May-24 13:33N 51°58' E 002°36'35412.5
2016-May-23 09:15N 57°09' E 007°29'912.1
2016-May-23 08:28N 57°16' E 007°39'9311.6
2016-May-23 00:29N 57°51' E 010°19'1112.0
2016-May-22 23:33N 57°50' E 010°40'1212.3
2016-May-22 22:33N 57°42' E 010°57'1212.3
2016-May-22 21:34N 57°34' E 011°14'1111.3
2016-May-22 20:33N 57°25' E 011°28'1211.9
2016-May-22 19:33N 57°14' E 011°35'1211.9
2016-May-22 18:33N 57°03' E 011°42'1211.6
2016-May-22 17:33N 56°52' E 011°50'1010.5
2016-May-22 16:33N 56°41' E 011°50'1212.1
2016-May-22 15:33N 56°31' E 011°39'21 9.4
2016-May-22 13:16N 56°20' E 011°06'1012.1
2016-May-22 12:25N 56°09' E 011°06'5310.7
2016-May-22 07:29N 55°17' E 011°04'9 9.4
2016-May-22 06:33N 55°08' E 010°59'1111.5
2016-May-22 05:33N 54°57' E 010°55'1211.8
2016-May-22 04:33N 54°46' E 010°49'1010.0
2016-May-22 03:33N 54°37' E 010°57'1212.2
2016-May-22 02:33N 54°34' E 011°17'1312.6
2016-May-22 01:33N 54°29' E 011°37'1212.5
2016-May-22 00:33N 54°27' E 011°58'10 9.9
2016-May-21 23:33N 54°31' E 012°13'10 9.3
2016-May-21 22:31N 54°39' E 012°23'8 8.5
2016-May-21 21:33N 54°43' E 012°35'7 7.3
2016-May-21 20:33N 54°47' E 012°46'1010.5
2016-May-21 19:33N 54°51' E 013°02'1312.6
2016-May-21 18:33N 54°56' E 013°23'1312.6
2016-May-21 17:33N 54°60' E 013°44'1212.3
2016-May-21 16:33N 55°05' E 014°03'1212.1
2016-May-21 15:33N 55°14' E 014°17'1212.4
2016-May-21 14:33N 55°23' E 014°31'1212.2
2016-May-21 13:34N 55°30' E 014°48'1312.5
2016-May-21 12:33N 55°36' E 015°08'1412.3
2016-May-21 11:22N 55°41' E 015°32'30211.5
2016-May-20 09:15N 59°19' E 021°60'912.5
2016-May-20 08:33N 59°24' E 022°14'1312.5
2016-May-20 07:33N 59°31' E 022°34'1312.3
2016-May-20 06:29N 59°34' E 022°59'1212.5
2016-May-20 05:33N 59°38' E 023°21'1212.5
2016-May-20 04:33N 59°41' E 023°45'1312.7
2016-May-20 03:33N 59°45' E 024°09'1412.5
2016-May-20 02:25N 59°48' E 024°36'3612.3
2016-May-19 23:28N 59°55' E 025°48'1512.1
2016-May-19 22:16N 59°59' E 026°16'812.1
2016-May-19 21:33N 60°01' E 026°32'1312.1
2016-May-19 20:30N 59°60' E 026°58'1111.4
2016-May-19 19:33N 60°04' E 027°18'1212.2
2016-May-19 18:33N 60°10' E 027°39'1111.4
2016-May-19 17:33N 60°10' E 028°02'1212.0
2016-May-19 16:33N 60°05' E 028°24'9 9.4
2016-May-19 15:33N 59°58' E 028°35'1010.1
2016-May-19 14:33N 59°49' E 028°26'7 6.4
2016-May-19 13:32N 59°43' E 028°26'0 0.0
2016-May-19 12:24N 59°43' E 028°26'0 0.0
2016-May-19 11:23N 59°43' E 028°26'0 0.0
2016-May-19 10:26N 59°43' E 028°26'0 0.0
2016-May-19 09:27N 59°43' E 028°26'0 0.0
2016-May-19 08:30N 59°43' E 028°26'0 0.0
2016-May-19 07:29N 59°43' E 028°26'0 0.0
2016-May-19 06:30N 59°43' E 028°26'0 0.0
2016-May-19 05:32N 59°43' E 028°26'0 0.0
2016-May-19 04:33N 59°43' E 028°26'0 0.0
2016-May-19 03:32N 59°43' E 028°26'0 0.0
2016-May-19 02:32N 59°43' E 028°26'0 0.0
2016-May-19 01:32N 59°43' E 028°26'0 0.0
2016-May-19 00:32N 59°43' E 028°26'0 0.0
2016-May-18 23:32N 59°43' E 028°26'0 0.0
2016-May-18 22:24N 59°43' E 028°26'0 0.0
2016-May-18 21:24N 59°43' E 028°26'0 0.0
2016-May-18 20:27N 59°43' E 028°26'0 0.0
2016-May-18 19:23N 59°43' E 028°26'0 0.0
2016-May-18 18:29N 59°43' E 028°26'0 0.0
2016-May-18 17:29N 59°43' E 028°26'0 0.0
2016-May-18 16:30N 59°43' E 028°26'0 0.0
2016-May-18 15:32N 59°43' E 028°26'0 0.0
2016-May-18 14:32N 59°43' E 028°26'0 0.0
2016-May-18 13:32N 59°43' E 028°26'0 0.0
2016-May-18 12:32N 59°43' E 028°26'0 0.0
2016-May-18 11:32N 59°43' E 028°26'0 0.0
2016-May-18 10:32N 59°43' E 028°26'0 0.0
2016-May-18 09:32N 59°43' E 028°26'0 0.0
2016-May-18 08:32N 59°43' E 028°26'0 0.0
2016-May-18 07:33N 59°43' E 028°26'1 1.2
2016-May-18 06:33N 59°41' E 028°24'5 4.8
2016-May-18 05:33N 59°46' E 028°24'0 0.0
2016-May-18 04:21N 59°46' E 028°24'0 0.1
2016-May-18 03:33N 59°46' E 028°24'0 0.0
2016-May-18 02:24N 59°46' E 028°24'0 0.0
2016-May-18 01:27N 59°46' E 028°24'0 0.1
2016-May-18 00:27N 59°46' E 028°25'0 0.0
2016-May-17 23:27N 59°46' E 028°25'0 0.1
2016-May-17 22:30N 59°46' E 028°25'0 0.0
2016-May-17 21:30N 59°46' E 028°25'0 0.2
2016-May-17 20:30N 59°46' E 028°25'0 0.1
2016-May-17 19:33N 59°46' E 028°25'0 0.0
2016-May-17 18:33N 59°46' E 028°25'0 0.0
2016-May-17 17:33N 59°46' E 028°25'0 0.0
2016-May-17 16:33N 59°46' E 028°25'0 0.0
2016-May-17 15:33N 59°46' E 028°25'0 0.0
2016-May-17 14:33N 59°46' E 028°25'0 0.0
2016-May-17 13:33N 59°46' E 028°25'0 0.0
2016-May-17 12:24N 59°46' E 028°25'0 0.0
2016-May-17 11:27N 59°46' E 028°25'0 0.0
2016-May-17 10:27N 59°46' E 028°25'0 0.0
2016-May-17 09:27N 59°46' E 028°25'0 0.0
2016-May-17 08:30N 59°46' E 028°25'0 0.1
2016-May-17 07:30N 59°46' E 028°24'0 0.0
2016-May-17 06:30N 59°46' E 028°24'0 0.0
2016-May-17 05:27N 59°46' E 028°25'0 0.2
2016-May-17 04:34N 59°46' E 028°25'8 8.4
2016-May-17 03:34N 59°54' E 028°31'3 2.9
2016-May-17 02:30N 59°56' E 028°36'0 0.0
2016-May-17 01:30N 59°56' E 028°36'0 0.0
2016-May-17 00:30N 59°56' E 028°36'0 0.0
2016-May-16 23:33N 59°56' E 028°36'0 0.0
2016-May-16 22:33N 59°56' E 028°36'0 0.0
2016-May-16 21:33N 59°56' E 028°36'0 0.0
2016-May-16 20:33N 59°56' E 028°36'0 0.1
2016-May-16 19:21N 59°56' E 028°36'0 0.0
2016-May-16 18:33N 59°56' E 028°36'0 0.1
2016-May-16 17:33N 59°56' E 028°36'0 0.1
2016-May-16 16:24N 59°56' E 028°36'0 0.0
2016-May-16 15:27N 59°56' E 028°36'0 0.0
2016-May-16 14:24N 59°56' E 028°36'0 0.1
2016-May-16 13:30N 59°56' E 028°36'0 0.1
2016-May-16 12:30N 59°56' E 028°36'0 0.1
2016-May-16 11:30N 59°56' E 028°36'0 0.1
2016-May-16 10:33N 59°56' E 028°36'0 0.0
2016-May-16 09:30N 59°56' E 028°36'0 0.0
2016-May-16 08:33N 59°56' E 028°36'0 0.0
2016-May-16 07:33N 59°56' E 028°36'0 0.1
2016-May-16 06:33N 59°56' E 028°36'0 0.1
2016-May-16 05:33N 59°56' E 028°36'0 0.2
2016-May-16 04:30N 59°56' E 028°36'3 3.2
2016-May-16 03:33N 59°59' E 028°35'6 6.2
2016-May-16 02:33N 60°03' E 028°26'7 6.7
2016-May-16 01:33N 60°07' E 028°15'7 7.3
2016-May-16 00:33N 60°09' E 028°01'7 7.1
2016-May-15 23:33N 60°11' E 027°47'8 7.6
2016-May-15 22:33N 60°07' E 027°34'8 7.8
2016-May-15 21:33N 60°03' E 027°21'7 7.1
2016-May-15 20:33N 59°59' E 027°08'5 4.6
2016-May-15 19:33N 59°58' E 026°60'5 4.9
2016-May-15 18:33N 59°59' E 026°50'6 6.4
2016-May-15 17:33N 59°59' E 026°37'7 7.3
2016-May-15 16:33N 59°57' E 026°23'7 7.2
2016-May-15 15:33N 59°55' E 026°09'  

Dump ship's entire track history